Time;durP1;ratioP1;P1;durP2;ratioP2;P2;SDS_P1;SDS_P2;PMS_P1;PMS_P2;Temp;Humidity;BMP_temperature;BMP_pressure;BME280_temperature;BME280_humidity;BME280_pressure;Samples;Min_cycle;Max_cycle;Signal;HPM_P1;HPM_P2
2024/01/21 00:00:43;;;;;;;10.00;5.68;;;;;;;;;;5048584;28;20029;-84
2024/01/21 00:03:08;;;;;;;9.88;5.65;;;;;;;;;;5068364;28;20032;-84
2024/01/21 00:05:34;;;;;;;10.18;5.60;;;;;;;;;;5069079;28;20041;-84
2024/01/21 00:07:59;;;;;;;9.85;4.93;;;;;;;;;;5067749;28;20025;-84
2024/01/21 00:10:25;;;;;;;9.95;5.72;;;;;;;;;;5050907;28;20040;-85
2024/01/21 00:12:50;;;;;;;9.30;5.32;;;;;;;;;;5053964;28;20020;-84
2024/01/21 00:15:16;;;;;;;9.90;5.38;;;;;;;;;;5056388;28;20082;-85
2024/01/21 00:17:41;;;;;;;10.65;5.45;;;;;;;;;;5055502;28;20077;-85
2024/01/21 00:20:07;;;;;;;9.32;5.47;;;;;;;;;;5069063;28;20029;-78
2024/01/21 00:22:32;;;;;;;10.48;5.80;;;;;;;;;;5066552;28;20509;-78
2024/01/21 00:24:58;;;;;;;8.25;5.10;;;;;;;;;;5045790;28;20032;-78
2024/01/21 00:27:23;;;;;;;11.25;5.95;;;;;;;;;;5063893;28;20047;-78
2024/01/21 00:29:48;;;;;;;11.30;5.70;;;;;;;;;;5063473;28;20047;-78
2024/01/21 00:32:14;;;;;;;9.50;5.55;;;;;;;;;;5053071;28;20483;-78
2024/01/21 00:34:40;;;;;;;10.90;5.55;;;;;;;;;;5068383;28;20028;-78
2024/01/21 00:37:05;;;;;;;8.90;5.15;;;;;;;;;;5052886;28;20105;-78
2024/01/21 00:39:31;;;;;;;9.05;5.10;;;;;;;;;;5049460;28;20112;-78
2024/01/21 00:41:57;;;;;;;9.95;5.40;;;;;;;;;;5066012;28;20070;-78
2024/01/21 00:44:22;;;;;;;9.40;4.55;;;;;;;;;;5048160;28;20021;-78
2024/01/21 00:46:47;;;;;;;9.30;4.82;;;;;;;;;;5047869;28;20031;-78
2024/01/21 00:49:14;;;;;;;16.58;5.57;;;;;;;;;;5051101;28;20477;-78
2024/01/21 00:51:39;;;;;;;7.80;4.53;;;;;;;;;;5047524;28;20122;-78
2024/01/21 00:54:05;;;;;;;9.38;5.18;;;;;;;;;;5048247;28;20147;-78
2024/01/21 00:56:30;;;;;;;10.23;5.63;;;;;;;;;;5029981;28;20402;-78
2024/01/21 00:58:56;;;;;;;10.90;4.80;;;;;;;;;;5048106;28;20040;-78
2024/01/21 01:01:21;;;;;;;12.38;5.80;;;;;;;;;;5064176;28;20474;-78
2024/01/21 01:03:46;;;;;;;8.02;5.05;;;;;;;;;;5050470;28;20109;-78
2024/01/21 01:06:12;;;;;;;10.68;5.45;;;;;;;;;;5045831;28;20111;-78
2024/01/21 01:08:37;;;;;;;10.15;5.03;;;;;;;;;;5047893;28;20513;-78
2024/01/21 01:11:03;;;;;;;9.20;4.70;;;;;;;;;;5065688;28;20069;-78
2024/01/21 01:13:28;;;;;;;8.45;4.68;;;;;;;;;;5047282;28;20029;-78
2024/01/21 01:15:54;;;;;;;8.85;4.70;;;;;;;;;;5064058;28;20025;-78
2024/01/21 01:18:19;;;;;;;9.27;4.70;;;;;;;;;;5064930;28;20036;-78
2024/01/21 01:20:45;;;;;;;9.20;4.80;;;;;;;;;;5062252;28;20502;-78
2024/01/21 01:23:10;;;;;;;8.52;5.25;;;;;;;;;;5048528;28;20028;-78
2024/01/21 01:25:36;;;;;;;10.88;5.25;;;;;;;;;;5062778;28;20551;-78
2024/01/21 01:28:02;;;;;;;9.65;5.20;;;;;;;;;;5064436;28;20029;-84
2024/01/21 01:30:28;;;;;;;9.20;4.85;;;;;;;;;;5046208;28;20067;-84
2024/01/21 01:32:53;;;;;;;8.48;4.97;;;;;;;;;;5047870;28;20122;-84
2024/01/21 01:35:19;;;;;;;9.63;4.50;;;;;;;;;;5048278;28;20041;-85
2024/01/21 01:37:44;;;;;;;10.25;5.10;;;;;;;;;;5061475;28;20033;-85
2024/01/21 01:40:10;;;;;;;7.00;4.03;;;;;;;;;;5046395;28;20032;-84
2024/01/21 01:42:35;;;;;;;7.63;4.32;;;;;;;;;;5049163;28;20020;-84
2024/01/21 01:45:01;;;;;;;8.40;4.70;;;;;;;;;;5066388;28;20020;-84
2024/01/21 01:47:26;;;;;;;8.40;4.28;;;;;;;;;;5047386;28;20501;-84
2024/01/21 01:49:54;;;;;;;7.78;4.30;;;;;;;;;;5043803;28;20020;-84
2024/01/21 01:52:20;;;;;;;8.65;4.38;;;;;;;;;;5060824;28;20040;-84
2024/01/21 01:54:46;;;;;;;7.70;4.10;;;;;;;;;;5039340;28;20028;-84
2024/01/21 01:57:14;;;;;;;9.13;4.55;;;;;;;;;;5060511;28;20085;-84
2024/01/21 01:59:39;;;;;;;9.80;4.47;;;;;;;;;;5047714;28;20100;-84
2024/01/21 02:02:06;;;;;;;7.85;4.10;;;;;;;;;;5064005;28;20033;-84
2024/01/21 02:04:32;;;;;;;7.40;4.30;;;;;;;;;;5045301;28;20036;-84
2024/01/21 02:06:58;;;;;;;8.13;4.38;;;;;;;;;;5061608;28;20032;-85
2024/01/21 02:09:23;;;;;;;8.45;4.30;;;;;;;;;;5064819;28;21262;-85
2024/01/21 02:11:49;;;;;;;8.57;4.28;;;;;;;;;;5044445;28;20028;-84
2024/01/21 02:14:14;;;;;;;8.45;4.20;;;;;;;;;;5067298;28;20107;-84
2024/01/21 02:16:39;;;;;;;8.68;4.85;;;;;;;;;;5049455;28;20408;-85
2024/01/21 02:19:10;;;;;;;7.35;4.18;;;;;;;;;;5063589;28;20062;-84
2024/01/21 02:21:36;;;;;;;7.82;4.18;;;;;;;;;;5063666;28;20025;-85
2024/01/21 02:24:02;;;;;;;7.68;4.00;;;;;;;;;;5043931;28;20028;-84
2024/01/21 02:26:27;;;;;;;6.97;3.83;;;;;;;;;;5061254;28;20060;-85
2024/01/21 02:28:53;;;;;;;8.82;4.18;;;;;;;;;;5043390;28;20491;-85
2024/01/21 02:31:18;;;;;;;9.27;4.25;;;;;;;;;;5062206;28;20045;-85
2024/01/21 02:33:44;;;;;;;8.45;3.65;;;;;;;;;;5048110;28;20047;-84
2024/01/21 02:36:10;;;;;;;8.27;3.63;;;;;;;;;;5063288;28;20497;-85
2024/01/21 02:38:35;;;;;;;6.55;3.63;;;;;;;;;;5046296;28;20064;-84
2024/01/21 02:41:01;;;;;;;6.95;3.53;;;;;;;;;;5048910;28;20059;-84
2024/01/21 02:43:26;;;;;;;7.65;3.97;;;;;;;;;;5046833;28;20478;-85
2024/01/21 02:45:52;;;;;;;7.20;3.70;;;;;;;;;;5062034;28;20402;-84
2024/01/21 02:48:17;;;;;;;7.07;3.50;;;;;;;;;;5065818;28;20033;-84
2024/01/21 02:50:42;;;;;;;8.02;3.63;;;;;;;;;;5060482;28;20494;-84
2024/01/21 02:53:09;;;;;;;7.22;3.40;;;;;;;;;;5065244;28;20028;-84
2024/01/21 02:55:35;;;;;;;7.22;3.78;;;;;;;;;;5063071;28;20107;-84
2024/01/21 02:58:00;;;;;;;7.50;3.75;;;;;;;;;;5060193;28;20135;-85
2024/01/21 03:00:26;;;;;;;7.25;3.75;;;;;;;;;;5061430;28;20017;-85
2024/01/21 03:02:52;;;;;;;6.22;3.53;;;;;;;;;;5044648;28;20111;-86
2024/01/21 03:05:18;;;;;;;6.43;3.50;;;;;;;;;;5062668;28;22054;-84
2024/01/21 03:07:43;;;;;;;4.97;2.80;;;;;;;;;;5046820;28;20538;-85
2024/01/21 03:10:09;;;;;;;7.65;3.58;;;;;;;;;;5060840;28;20032;-85
2024/01/21 03:12:36;;;;;;;7.65;3.47;;;;;;;;;;5063115;28;20044;-85
2024/01/21 03:15:02;;;;;;;6.75;3.35;;;;;;;;;;5062763;28;20482;-84
2024/01/21 03:17:27;;;;;;;6.20;3.17;;;;;;;;;;5045377;28;20545;-84
2024/01/21 03:19:53;;;;;;;10.52;3.28;;;;;;;;;;5061400;28;20032;-85
2024/01/21 03:22:18;;;;;;;6.60;3.38;;;;;;;;;;5046900;28;20043;-85
2024/01/21 03:24:44;;;;;;;7.70;3.22;;;;;;;;;;5042053;28;20035;-84
2024/01/21 03:27:09;;;;;;;6.50;3.03;;;;;;;;;;5047448;28;20761;-84
2024/01/21 03:29:34;;;;;;;6.15;3.22;;;;;;;;;;5063855;28;20073;-85
2024/01/21 03:32:00;;;;;;;6.53;3.38;;;;;;;;;;5044570;28;20021;-85
2024/01/21 03:34:25;;;;;;;6.32;3.20;;;;;;;;;;5045614;28;20036;-84
2024/01/21 03:36:50;;;;;;;7.65;3.40;;;;;;;;;;5044667;28;20113;-85
2024/01/21 03:39:16;;;;;;;5.55;2.95;;;;;;;;;;5061847;28;20025;-85
2024/01/21 03:41:41;;;;;;;6.47;3.30;;;;;;;;;;5060385;28;20109;-84
2024/01/21 03:44:07;;;;;;;7.53;3.38;;;;;;;;;;5045276;28;20048;-85
2024/01/21 03:46:32;;;;;;;5.85;3.10;;;;;;;;;;5051292;28;20581;-85
2024/01/21 03:48:57;;;;;;;5.57;2.88;;;;;;;;;;5049848;28;20025;-78
2024/01/21 03:51:23;;;;;;;8.60;3.47;;;;;;;;;;5070446;28;20033;-78
2024/01/21 03:53:48;;;;;;;7.43;2.90;;;;;;;;;;5048509;28;20601;-78
2024/01/21 03:56:18;;;;;;;6.03;2.95;;;;;;;;;;5049389;28;20620;-78
2024/01/21 03:58:44;;;;;;;6.18;2.65;;;;;;;;;;5052276;28;20086;-78
2024/01/21 04:01:09;;;;;;;5.03;2.65;;;;;;;;;;5050175;28;20062;-78
2024/01/21 04:03:35;;;;;;;8.57;3.15;;;;;;;;;;5066159;28;20607;-78
2024/01/21 04:06:00;;;;;;;6.55;3.03;;;;;;;;;;5052443;28;20391;-78
2024/01/21 04:08:25;;;;;;;6.47;3.13;;;;;;;;;;5047942;28;20028;-78
2024/01/21 04:10:53;;;;;;;5.60;2.65;;;;;;;;;;5048437;28;20759;-78
2024/01/21 04:13:20;;;;;;;5.57;2.65;;;;;;;;;;5049939;28;20060;-78
2024/01/21 04:15:45;;;;;;;7.72;2.90;;;;;;;;;;5048252;28;20085;-78
2024/01/21 04:18:11;;;;;;;5.18;2.50;;;;;;;;;;5068852;28;20024;-78
2024/01/21 04:20:36;;;;;;;5.90;2.60;;;;;;;;;;5050948;28;20028;-78
2024/01/21 04:23:02;;;;;;;5.65;2.78;;;;;;;;;;5047019;28;20105;-78
2024/01/21 04:25:27;;;;;;;5.10;2.85;;;;;;;;;;5048783;28;20131;-78
2024/01/21 04:27:53;;;;;;;5.78;2.90;;;;;;;;;;5047516;28;20062;-78
2024/01/21 04:30:18;;;;;;;4.93;2.50;;;;;;;;;;5047238;28;20048;-78
2024/01/21 04:32:43;;;;;;;5.25;2.65;;;;;;;;;;5048322;28;20437;-78
2024/01/21 04:35:09;;;;;;;5.13;2.45;;;;;;;;;;5066904;28;20036;-78
2024/01/21 04:37:34;;;;;;;6.22;3.03;;;;;;;;;;5047498;28;20494;-78
2024/01/21 04:40:00;;;;;;;6.97;3.25;;;;;;;;;;5061703;28;20472;-78
2024/01/21 04:42:26;;;;;;;6.93;3.00;;;;;;;;;;5047134;28;20386;-78
2024/01/21 04:44:51;;;;;;;5.88;2.55;;;;;;;;;;5045450;28;20032;-78
2024/01/21 04:47:17;;;;;;;7.50;2.75;;;;;;;;;;5046364;28;20682;-78
2024/01/21 04:49:42;;;;;;;5.30;2.78;;;;;;;;;;5047760;28;20039;-78
2024/01/21 04:52:07;;;;;;;6.45;3.00;;;;;;;;;;5046223;28;20024;-77
2024/01/21 04:54:33;;;;;;;7.95;3.35;;;;;;;;;;5032395;28;20032;-78
2024/01/21 04:56:58;;;;;;;5.70;2.80;;;;;;;;;;5047464;28;20035;-78
2024/01/21 04:59:24;;;;;;;7.53;2.95;;;;;;;;;;5042068;28;20437;-85
2024/01/21 05:01:50;;;;;;;6.65;3.40;;;;;;;;;;5063992;28;20441;-85
2024/01/21 05:04:15;;;;;;;5.82;2.90;;;;;;;;;;5065785;28;20029;-85
2024/01/21 05:06:41;;;;;;;5.60;2.72;;;;;;;;;;5047995;28;20548;-85
2024/01/21 05:09:06;;;;;;;6.85;3.20;;;;;;;;;;5064393;28;20040;-85
2024/01/21 05:11:32;;;;;;;7.28;3.40;;;;;;;;;;5064733;28;20082;-85
2024/01/21 05:13:58;;;;;;;6.88;3.13;;;;;;;;;;5044720;28;20416;-85
2024/01/21 05:16:24;;;;;;;7.45;3.47;;;;;;;;;;5063596;28;20028;-85
2024/01/21 05:18:49;;;;;;;7.25;3.28;;;;;;;;;;5047242;28;20038;-85
2024/01/21 05:21:20;;;;;;;6.03;3.28;;;;;;;;;;5049059;28;20773;-84
2024/01/21 05:23:47;;;;;;;6.28;2.97;;;;;;;;;;5064942;28;20024;-84
2024/01/21 05:26:12;;;;;;;8.73;3.33;;;;;;;;;;5048551;28;20122;-85
2024/01/21 05:28:39;;;;;;;7.15;3.47;;;;;;;;;;5068152;28;20029;-85
2024/01/21 05:31:05;;;;;;;6.57;3.38;;;;;;;;;;5047933;28;20032;-84
2024/01/21 05:33:30;;;;;;;6.15;3.33;;;;;;;;;;5062981;28;20386;-85
2024/01/21 05:35:55;;;;;;;7.25;3.67;;;;;;;;;;5061350;28;20098;-85
2024/01/21 05:38:21;;;;;;;5.75;3.08;;;;;;;;;;5067057;28;20033;-85
2024/01/21 05:40:46;;;;;;;6.97;3.30;;;;;;;;;;5050535;28;20020;-85
2024/01/21 05:43:12;;;;;;;7.22;3.95;;;;;;;;;;5049021;28;20086;-88
2024/01/21 05:45:37;;;;;;;7.35;3.70;;;;;;;;;;5049269;28;20056;-85
2024/01/21 05:48:03;;;;;;;6.72;3.30;;;;;;;;;;5050182;28;20024;-86
2024/01/21 05:50:28;;;;;;;7.13;3.70;;;;;;;;;;5049726;28;20449;-84
2024/01/21 05:52:54;;;;;;;8.05;3.80;;;;;;;;;;5044507;28;20029;-84
2024/01/21 05:55:19;;;;;;;8.45;3.63;;;;;;;;;;5066057;28;20032;-85
2024/01/21 05:57:45;;;;;;;8.43;4.20;;;;;;;;;;5060561;28;20067;-85
2024/01/21 06:00:10;;;;;;;7.75;3.80;;;;;;;;;;5045126;28;20025;-85
2024/01/21 06:02:36;;;;;;;9.68;4.32;;;;;;;;;;5044338;28;20483;-85
2024/01/21 06:05:02;;;;;;;6.95;3.70;;;;;;;;;;5069507;28;20021;-85
2024/01/21 06:07:28;;;;;;;7.53;3.88;;;;;;;;;;5045722;28;20021;-85
2024/01/21 06:09:54;;;;;;;8.73;4.30;;;;;;;;;;5062203;28;20070;-78
2024/01/21 06:12:19;;;;;;;7.25;4.07;;;;;;;;;;5041563;28;20105;-78
2024/01/21 06:14:46;;;;;;;7.57;4.00;;;;;;;;;;5048321;28;20390;-78
2024/01/21 06:17:11;;;;;;;8.50;4.05;;;;;;;;;;5064620;28;20032;-78
2024/01/21 06:19:37;;;;;;;9.43;4.55;;;;;;;;;;5060907;28;20771;-78
2024/01/21 06:22:02;;;;;;;8.13;3.92;;;;;;;;;;5064664;28;20043;-78
2024/01/21 06:24:27;;;;;;;7.60;4.00;;;;;;;;;;5063013;28;20036;-78
2024/01/21 06:26:53;;;;;;;8.27;4.45;;;;;;;;;;5051984;28;20115;-78
2024/01/21 06:29:18;;;;;;;7.45;4.05;;;;;;;;;;5064183;28;20029;-78
2024/01/21 06:31:44;;;;;;;7.43;4.45;;;;;;;;;;5046087;28;20028;-78
2024/01/21 06:34:09;;;;;;;10.27;4.15;;;;;;;;;;5066164;28;20040;-78
2024/01/21 06:36:34;;;;;;;8.00;4.32;;;;;;;;;;5045310;28;20028;-78
2024/01/21 06:39:00;;;;;;;7.90;3.75;;;;;;;;;;5045715;28;20098;-78
2024/01/21 06:41:25;;;;;;;9.00;4.40;;;;;;;;;;5044389;28;20398;-78
2024/01/21 06:43:50;;;;;;;9.50;4.63;;;;;;;;;;5045302;28;20096;-78
2024/01/21 06:46:16;;;;;;;9.68;4.50;;;;;;;;;;5041932;28;20027;-78
2024/01/21 06:48:42;;;;;;;7.75;4.20;;;;;;;;;;5060160;28;20028;-78
2024/01/21 06:51:11;;;;;;;9.30;4.35;;;;;;;;;;5046072;28;20024;-78
2024/01/21 06:53:38;;;;;;;8.75;4.20;;;;;;;;;;5062680;28;20090;-78
2024/01/21 06:56:07;;;;;;;7.63;4.28;;;;;;;;;;5063315;28;20017;-78
2024/01/21 06:58:35;;;;;;;8.18;4.22;;;;;;;;;;5048390;28;20028;-78
2024/01/21 07:01:01;;;;;;;10.13;4.68;;;;;;;;;;5045457;28;20499;-78
2024/01/21 07:03:26;;;;;;;8.85;4.53;;;;;;;;;;5062441;28;20066;-78
2024/01/21 07:05:52;;;;;;;7.85;4.20;;;;;;;;;;5045362;28;20024;-78
2024/01/21 07:08:18;;;;;;;7.78;4.30;;;;;;;;;;5062032;28;20055;-78
2024/01/21 07:10:45;;;;;;;8.35;4.30;;;;;;;;;;5061302;28;20016;-78
2024/01/21 07:13:11;;;;;;;8.02;4.57;;;;;;;;;;5062244;28;20043;-78
2024/01/21 07:15:37;;;;;;;9.20;4.28;;;;;;;;;;5061143;28;20038;-78
2024/01/21 07:18:02;;;;;;;8.82;4.13;;;;;;;;;;5064234;28;20906;-78
2024/01/21 07:20:28;;;;;;;7.47;4.00;;;;;;;;;;5064442;28;20386;-78
2024/01/21 07:22:58;;;;;;;8.27;4.43;;;;;;;;;;5064721;28;20461;-78
2024/01/21 07:25:23;;;;;;;7.65;4.18;;;;;;;;;;5067690;28;20020;-78
2024/01/21 07:27:48;;;;;;;9.73;5.00;;;;;;;;;;5068265;28;20090;-79
2024/01/21 07:30:14;;;;;;;9.82;4.22;;;;;;;;;;5067027;28;20029;-78
2024/01/21 07:32:40;;;;;;;8.15;4.25;;;;;;;;;;5070469;28;20521;-78
2024/01/21 07:35:08;;;;;;;8.80;4.22;;;;;;;;;;5068319;28;20035;-78
2024/01/21 07:37:35;;;;;;;6.95;4.05;;;;;;;;;;5059749;28;20028;-78
2024/01/21 07:40:01;;;;;;;8.85;4.28;;;;;;;;;;5047430;28;20043;-78
2024/01/21 07:42:26;;;;;;;7.75;4.45;;;;;;;;;;5049602;28;20039;-78
2024/01/21 07:44:52;;;;;;;7.70;4.32;;;;;;;;;;5051793;28;20095;-78
2024/01/21 07:47:17;;;;;;;8.30;4.05;;;;;;;;;;5051344;28;20074;-78
2024/01/21 07:49:43;;;;;;;9.05;4.50;;;;;;;;;;5052378;28;20044;-78
2024/01/21 07:52:09;;;;;;;7.20;3.97;;;;;;;;;;5068912;28;20032;-78
2024/01/21 07:54:35;;;;;;;7.55;4.10;;;;;;;;;;5069848;28;20037;-78
2024/01/21 07:57:00;;;;;;;8.98;4.10;;;;;;;;;;5052741;28;20029;-78
2024/01/21 07:59:28;;;;;;;9.88;4.03;;;;;;;;;;5071572;28;20032;-78
2024/01/21 08:01:54;;;;;;;9.02;3.88;;;;;;;;;;5069689;28;20028;-78
2024/01/21 08:04:19;;;;;;;10.52;4.80;;;;;;;;;;5069822;28;20405;-78
2024/01/21 08:06:45;;;;;;;8.75;4.00;;;;;;;;;;5074746;28;20502;-78
2024/01/21 08:09:10;;;;;;;9.52;4.30;;;;;;;;;;5072103;28;20028;-78
2024/01/21 08:11:36;;;;;;;7.50;3.78;;;;;;;;;;5072190;28;20037;-78
2024/01/21 08:14:01;;;;;;;8.82;4.60;;;;;;;;;;5058741;28;20024;-78
2024/01/21 08:16:27;;;;;;;6.72;4.00;;;;;;;;;;5055436;28;20032;-78
2024/01/21 08:18:53;;;;;;;8.52;4.25;;;;;;;;;;5058624;28;20119;-78
2024/01/21 08:21:19;;;;;;;7.28;4.25;;;;;;;;;;5076130;28;20569;-78
2024/01/21 08:23:44;;;;;;;9.18;4.30;;;;;;;;;;5081105;28;20059;-78
2024/01/21 08:26:10;;;;;;;8.40;4.32;;;;;;;;;;5073968;28;20024;-78
2024/01/21 08:28:37;;;;;;;7.22;3.60;;;;;;;;;;5075310;28;20020;-78
2024/01/21 08:31:03;;;;;;;7.57;3.72;;;;;;;;;;5074932;28;20060;-78
2024/01/21 08:33:29;;;;;;;7.38;3.83;;;;;;;;;;5055641;28;20562;-78
2024/01/21 08:35:54;;;;;;;8.57;4.53;;;;;;;;;;5073709;28;20104;-78
2024/01/21 08:38:20;;;;;;;6.95;3.65;;;;;;;;;;5071067;28;20024;-78
2024/01/21 08:40:46;;;;;;;9.02;4.45;;;;;;;;;;5055323;28;20066;-78
2024/01/21 08:43:13;;;;;;;6.53;3.63;;;;;;;;;;5067126;28;20033;-78
2024/01/21 08:45:38;;;;;;;6.65;3.42;;;;;;;;;;5067500;28;20033;-78
2024/01/21 08:48:04;;;;;;;8.13;4.18;;;;;;;;;;5055595;28;20066;-78
2024/01/21 08:50:30;;;;;;;8.75;4.68;;;;;;;;;;5073069;28;20024;-78
2024/01/21 08:52:55;;;;;;;8.25;4.20;;;;;;;;;;5048950;28;20036;-78
2024/01/21 08:55:20;;;;;;;7.35;4.28;;;;;;;;;;5056191;28;20500;-78
2024/01/21 08:57:47;;;;;;;6.95;3.85;;;;;;;;;;5074539;28;20025;-78
2024/01/21 09:00:13;;;;;;;8.07;3.92;;;;;;;;;;5055578;28;20481;-78
2024/01/21 09:02:38;;;;;;;8.10;4.53;;;;;;;;;;5071453;28;20025;-77
2024/01/21 09:05:04;;;;;;;9.80;4.03;;;;;;;;;;5072595;28;20406;-78
2024/01/21 09:07:29;;;;;;;7.13;4.22;;;;;;;;;;5052651;28;20718;-78
2024/01/21 09:09:54;;;;;;;7.90;3.95;;;;;;;;;;5047649;28;20074;-78
2024/01/21 09:12:20;;;;;;;8.38;3.85;;;;;;;;;;5070955;28;20043;-78
2024/01/21 09:14:45;;;;;;;9.27;4.30;;;;;;;;;;5051751;28;20457;-78
2024/01/21 09:17:11;;;;;;;7.07;4.05;;;;;;;;;;5055132;28;20028;-78
2024/01/21 09:19:36;;;;;;;8.57;4.18;;;;;;;;;;5069093;28;20470;-78
2024/01/21 09:22:02;;;;;;;8.02;4.20;;;;;;;;;;5054802;28;20444;-77
2024/01/21 09:24:27;;;;;;;7.63;4.35;;;;;;;;;;5072931;28;20027;-78
2024/01/21 09:26:53;;;;;;;8.32;4.25;;;;;;;;;;5069109;28;20466;-78
2024/01/21 09:29:18;;;;;;;7.15;3.78;;;;;;;;;;5055166;28;20478;-78
2024/01/21 09:31:53;;;;;;;7.07;4.05;;;;;;;;;;5051793;28;20390;-78
2024/01/21 09:34:18;;;;;;;8.68;4.55;;;;;;;;;;5054510;28;20031;-78
2024/01/21 09:36:44;;;;;;;8.85;4.57;;;;;;;;;;5069811;28;20025;-78
2024/01/21 09:39:09;;;;;;;7.70;4.55;;;;;;;;;;5054276;28;20580;-78
2024/01/21 09:41:57;;;;;;;9.02;4.07;;;;;;;;;;5070418;28;20064;-78
2024/01/21 09:44:27;;;;;;;8.02;3.88;;;;;;;;;;5066314;28;20028;-78
2024/01/21 09:46:58;;;;;;;7.47;3.95;;;;;;;;;;5070176;28;20178;-78
2024/01/21 09:49:24;;;;;;;8.52;4.45;;;;;;;;;;5053350;28;20116;-78
2024/01/21 09:51:51;;;;;;;8.80;4.32;;;;;;;;;;5061567;28;20077;-78
2024/01/21 09:54:17;;;;;;;9.10;4.30;;;;;;;;;;5066642;28;20028;-78
2024/01/21 09:56:43;;;;;;;9.25;4.43;;;;;;;;;;5069393;28;20505;-78
2024/01/21 09:59:09;;;;;;;8.27;4.53;;;;;;;;;;5066958;28;20070;-78
2024/01/21 10:01:37;;;;;;;8.70;4.68;;;;;;;;;;5053105;28;20060;-78
2024/01/21 10:04:03;;;;;;;8.20;4.32;;;;;;;;;;5051227;28;20040;-78
2024/01/21 10:06:28;;;;;;;8.25;4.45;;;;;;;;;;5046092;28;20057;-78
2024/01/21 10:09:10;;;;;;;8.88;4.10;;;;;;;;;;5051782;28;20481;-78
2024/01/21 10:11:35;;;;;;;8.55;4.82;;;;;;;;;;5066474;28;20020;-78
2024/01/21 10:14:01;;;;;;;8.10;4.55;;;;;;;;;;5042996;28;20086;-78
2024/01/21 10:16:26;;;;;;;9.02;4.00;;;;;;;;;;5050772;28;20123;-78
2024/01/21 10:18:52;;;;;;;7.38;4.00;;;;;;;;;;5049484;28;20029;-78
2024/01/21 10:21:19;;;;;;;10.57;4.88;;;;;;;;;;5066906;28;20024;-78
2024/01/21 10:23:46;;;;;;;9.40;4.82;;;;;;;;;;5057912;28;20060;-78
2024/01/21 10:26:11;;;;;;;8.05;4.70;;;;;;;;;;5061878;28;20434;-78
2024/01/21 10:28:39;;;;;;;8.45;4.43;;;;;;;;;;5048619;28;20526;-78
2024/01/21 10:31:06;;;;;;;8.60;4.82;;;;;;;;;;5064697;28;20028;-78
2024/01/21 10:33:33;;;;;;;10.48;4.88;;;;;;;;;;5069897;28;20522;-78
2024/01/21 10:36:01;;;;;;;7.82;4.40;;;;;;;;;;5062727;28;20032;-78
2024/01/21 10:38:31;;;;;;;7.20;4.40;;;;;;;;;;5066621;28;20077;-78
2024/01/21 10:40:59;;;;;;;8.50;4.47;;;;;;;;;;5042684;28;20132;-78
2024/01/21 10:43:25;;;;;;;7.38;4.53;;;;;;;;;;5072551;28;20052;-78
2024/01/21 10:45:53;;;;;;;9.65;4.50;;;;;;;;;;5050760;28;20052;-78
2024/01/21 10:48:20;;;;;;;7.68;4.50;;;;;;;;;;5061805;28;20020;-78
2024/01/21 10:50:48;;;;;;;10.05;4.88;;;;;;;;;;5073170;28;20166;-78
2024/01/21 10:53:16;;;;;;;8.23;4.32;;;;;;;;;;5049283;28;20032;-78
2024/01/21 10:55:44;;;;;;;8.77;4.63;;;;;;;;;;5063836;28;20032;-78
2024/01/21 10:58:09;;;;;;;9.05;4.72;;;;;;;;;;5055811;28;20115;-78
2024/01/21 11:00:36;;;;;;;9.00;5.03;;;;;;;;;;5048821;28;20081;-78
2024/01/21 11:03:29;;;;;;;7.75;4.75;;;;;;;;;;5046518;28;20260;-78
2024/01/21 11:06:03;;;;;;;7.50;4.35;;;;;;;;;;5056292;28;20024;-78
2024/01/21 11:08:29;;;;;;;8.80;4.47;;;;;;;;;;5055453;28;20032;-78
2024/01/21 11:11:13;;;;;;;7.72;4.60;;;;;;;;;;5064620;28;20705;-78
2024/01/21 11:13:41;;;;;;;7.90;4.40;;;;;;;;;;5044208;28;20062;-78
2024/01/21 11:16:14;;;;;;;9.10;4.57;;;;;;;;;;5042259;28;20128;-79
2024/01/21 11:18:41;;;;;;;10.77;4.45;;;;;;;;;;5058572;28;20071;-77
2024/01/21 11:21:08;;;;;;;9.27;4.80;;;;;;;;;;5039956;28;20051;-78
2024/01/21 11:23:33;;;;;;;8.57;4.53;;;;;;;;;;5049484;28;20115;-78
2024/01/21 11:25:59;;;;;;;8.25;4.53;;;;;;;;;;5058970;28;20166;-78
2024/01/21 11:28:29;;;;;;;8.00;4.60;;;;;;;;;;5050791;28;20474;-78
2024/01/21 11:31:07;;;;;;;10.05;5.10;;;;;;;;;;5046261;28;20028;-78
2024/01/21 11:33:32;;;;;;;8.25;4.78;;;;;;;;;;5060387;28;20024;-78
2024/01/21 11:36:00;;;;;;;7.93;4.93;;;;;;;;;;5063159;28;20735;-78
2024/01/21 11:38:29;;;;;;;7.45;4.70;;;;;;;;;;5061917;28;20033;-78
2024/01/21 11:41:04;;;;;;;9.32;4.72;;;;;;;;;;5059759;28;20029;-78
2024/01/21 11:43:33;;;;;;;8.50;5.07;;;;;;;;;;5063549;28;20111;-78
2024/01/21 11:46:01;;;;;;;8.50;5.10;;;;;;;;;;5043288;28;20097;-78
2024/01/21 11:48:29;;;;;;;10.00;4.60;;;;;;;;;;5062929;28;20094;-78
2024/01/21 11:50:57;;;;;;;9.40;4.90;;;;;;;;;;5053617;28;21206;-78
2024/01/21 11:53:23;;;;;;;9.23;4.90;;;;;;;;;;5060795;28;20025;-77
2024/01/21 11:55:49;;;;;;;9.43;4.80;;;;;;;;;;5059280;28;20043;-78
2024/01/21 11:58:16;;;;;;;8.98;4.53;;;;;;;;;;5064409;28;20032;-77
2024/01/21 12:00:41;;;;;;;9.20;4.97;;;;;;;;;;5064912;28;20047;-78
2024/01/21 12:03:07;;;;;;;7.93;4.68;;;;;;;;;;5064124;28;20137;-78
2024/01/21 12:05:36;;;;;;;7.72;4.35;;;;;;;;;;5060783;28;20354;-78
2024/01/21 12:08:02;;;;;;;8.27;4.88;;;;;;;;;;5049620;28;20414;-85
2024/01/21 12:10:28;;;;;;;9.40;4.88;;;;;;;;;;5065533;28;20490;-87
2024/01/21 12:12:54;;;;;;;8.90;4.78;;;;;;;;;;5048886;28;20032;-86
2024/01/21 12:15:19;;;;;;;10.43;5.13;;;;;;;;;;5063007;28;20503;-87
2024/01/21 12:17:54;;;;;;;8.50;4.80;;;;;;;;;;5053240;28;20094;-87
2024/01/21 12:20:20;;;;;;;8.23;4.93;;;;;;;;;;5045830;28;20572;-86
2024/01/21 12:22:46;;;;;;;8.75;4.60;;;;;;;;;;5073410;28;20024;-84
2024/01/21 12:25:11;;;;;;;10.88;5.05;;;;;;;;;;5049000;28;20119;-84
2024/01/21 12:27:57;;;;;;;11.38;5.20;;;;;;;;;;5049374;28;20485;-83
2024/01/21 12:30:24;;;;;;;10.05;5.38;;;;;;;;;;5027602;28;20082;-83
2024/01/21 12:32:49;;;;;;;7.68;4.68;;;;;;;;;;5053302;28;20131;-84
2024/01/21 12:35:15;;;;;;;10.90;5.25;;;;;;;;;;5067609;28;20562;-83
2024/01/21 12:37:41;;;;;;;10.23;5.05;;;;;;;;;;5050793;28;20059;-84
2024/01/21 12:40:08;;;;;;;8.07;5.07;;;;;;;;;;5050758;28;20032;-83
2024/01/21 12:42:34;;;;;;;9.50;5.22;;;;;;;;;;5063495;28;20031;-83
2024/01/21 12:44:59;;;;;;;8.32;4.88;;;;;;;;;;5047384;28;20037;-83
2024/01/21 12:47:25;;;;;;;8.95;4.90;;;;;;;;;;5070142;28;20021;-84
2024/01/21 12:49:50;;;;;;;11.88;5.13;;;;;;;;;;5064379;28;20028;-84
2024/01/21 12:52:15;;;;;;;8.02;4.72;;;;;;;;;;5072175;28;20426;-83
2024/01/21 12:54:41;;;;;;;10.07;5.55;;;;;;;;;;5071558;28;20031;-84
2024/01/21 12:57:06;;;;;;;8.77;4.93;;;;;;;;;;5067278;28;20060;-83
2024/01/21 12:59:33;;;;;;;10.93;4.90;;;;;;;;;;5051489;28;20032;-83
2024/01/21 13:01:59;;;;;;;9.10;4.90;;;;;;;;;;5061652;28;20089;-83
2024/01/21 13:04:25;;;;;;;9.70;5.07;;;;;;;;;;5067370;28;20437;-83
2024/01/21 13:06:54;;;;;;;9.45;5.20;;;;;;;;;;5064433;28;20402;-83
2024/01/21 13:09:20;;;;;;;9.13;4.80;;;;;;;;;;5063403;28;20024;-83
2024/01/21 13:11:45;;;;;;;10.15;5.10;;;;;;;;;;5069605;28;20032;-84
2024/01/21 13:14:11;;;;;;;9.52;4.85;;;;;;;;;;5067737;28;20109;-83
2024/01/21 13:16:36;;;;;;;8.30;4.63;;;;;;;;;;5064983;28;20033;-83
2024/01/21 13:19:03;;;;;;;8.98;5.25;;;;;;;;;;5068265;28;20032;-84
2024/01/21 13:21:29;;;;;;;11.60;5.10;;;;;;;;;;5064243;28;20025;-83
2024/01/21 13:23:58;;;;;;;9.88;5.22;;;;;;;;;;5063060;28;20421;-83
2024/01/21 13:26:25;;;;;;;10.00;5.13;;;;;;;;;;5066636;28;20399;-84
2024/01/21 13:31:33;;;;;;;8.88;5.28;;;;;;;;;;5056600;28;20156;-78
2024/01/21 13:34:04;;;;;;;8.88;5.25;;;;;;;;;;5064722;28;20035;-78
2024/01/21 13:36:31;;;;;;;10.02;4.82;;;;;;;;;;5072588;28;20078;-78
2024/01/21 13:38:57;;;;;;;9.88;5.53;;;;;;;;;;5069411;28;20033;-83
2024/01/21 13:41:25;;;;;;;8.85;5.00;;;;;;;;;;5065977;28;20027;-83
2024/01/21 13:43:51;;;;;;;9.88;5.85;;;;;;;;;;5058658;28;20040;-83
2024/01/21 13:46:16;;;;;;;9.82;5.15;;;;;;;;;;5058287;28;20036;-83
2024/01/21 13:48:42;;;;;;;9.77;5.43;;;;;;;;;;5039409;28;20491;-83
2024/01/21 13:51:09;;;;;;;10.40;5.35;;;;;;;;;;5037047;28;20509;-82
2024/01/21 13:53:36;;;;;;;9.23;5.32;;;;;;;;;;5058129;28;20029;-83
2024/01/21 13:56:02;;;;;;;9.32;5.05;;;;;;;;;;5065733;28;20074;-83
2024/01/21 13:58:29;;;;;;;9.52;5.50;;;;;;;;;;5070828;28;20020;-85
2024/01/21 14:00:55;;;;;;;8.32;5.40;;;;;;;;;;5064714;28;20025;-84
2024/01/21 14:03:20;;;;;;;9.18;5.50;;;;;;;;;;5065339;28;20031;-83
2024/01/21 14:05:48;;;;;;;9.10;5.30;;;;;;;;;;5044954;28;20675;-83
2024/01/21 14:08:14;;;;;;;10.70;5.53;;;;;;;;;;5067854;28;20043;-84
2024/01/21 14:10:40;;;;;;;12.85;6.03;;;;;;;;;;5066214;28;20425;-84
2024/01/21 14:13:05;;;;;;;9.43;5.60;;;;;;;;;;5047139;28;20024;-83
2024/01/21 14:15:31;;;;;;;11.45;5.57;;;;;;;;;;5060653;28;20586;-83
2024/01/21 14:17:57;;;;;;;10.05;5.65;;;;;;;;;;5056158;28;20028;-84
2024/01/21 14:20:23;;;;;;;9.40;5.32;;;;;;;;;;5063282;28;20699;-84
2024/01/21 14:22:49;;;;;;;10.27;5.85;;;;;;;;;;5051735;28;20036;-83
2024/01/21 14:25:27;;;;;;;10.50;5.78;;;;;;;;;;5048363;28;20032;-83
2024/01/21 14:27:54;;;;;;;9.57;5.53;;;;;;;;;;5058068;28;20035;-83
2024/01/21 14:30:34;;;;;;;9.88;5.30;;;;;;;;;;5060656;28;20073;-84
2024/01/21 14:33:01;;;;;;;10.15;5.78;;;;;;;;;;5061900;28;20074;-83
2024/01/21 14:35:28;;;;;;;12.18;5.75;;;;;;;;;;5063346;28;20028;-83
2024/01/21 14:37:56;;;;;;;11.23;5.78;;;;;;;;;;5047293;28;20081;-83